sensor_id;sensor_type;location;lat;lon;timestamp;pressure;altitude;pressure_sealevel;temperature;humidity
21361;BME280;10839;43.206;23.550;2023-05-08T00:00:28;97236.88;;;15.14;79.93
21361;BME280;10839;43.206;23.550;2023-05-08T00:02:55;97237.25;;;15.17;80.08
21361;BME280;10839;43.206;23.550;2023-05-08T00:05:20;97238.97;;;15.36;78.57
21361;BME280;10839;43.206;23.550;2023-05-08T00:07:46;97230.91;;;15.55;77.39
21361;BME280;10839;43.206;23.550;2023-05-08T00:10:12;97232.31;;;15.32;78.56
21361;BME280;10839;43.206;23.550;2023-05-08T00:12:38;97255.59;;;15.47;77.83
21361;BME280;10839;43.206;23.550;2023-05-08T00:15:05;97231.72;;;15.30;78.74
21361;BME280;10839;43.206;23.550;2023-05-08T00:17:31;97240.59;;;15.19;79.75
21361;BME280;10839;43.206;23.550;2023-05-08T00:19:57;97246.63;;;15.21;79.69
21361;BME280;10839;43.206;23.550;2023-05-08T00:22:23;97223.31;;;15.38;78.31
21361;BME280;10839;43.206;23.550;2023-05-08T00:24:49;97234.94;;;15.46;77.54
21361;BME280;10839;43.206;23.550;2023-05-08T00:27:14;97237.06;;;15.44;77.91
21361;BME280;10839;43.206;23.550;2023-05-08T00:29:42;97241.13;;;15.53;77.68
21361;BME280;10839;43.206;23.550;2023-05-08T00:32:08;97238.75;;;15.63;76.65
21361;BME280;10839;43.206;23.550;2023-05-08T00:34:35;97233.31;;;15.81;75.57
21361;BME280;10839;43.206;23.550;2023-05-08T00:37:00;97243.44;;;15.92;74.75
21361;BME280;10839;43.206;23.550;2023-05-08T00:39:28;97237.56;;;15.95;74.21
21361;BME280;10839;43.206;23.550;2023-05-08T00:41:54;97234.94;;;15.88;75.23
21361;BME280;10839;43.206;23.550;2023-05-08T00:44:20;97229.25;;;16.08;73.86
21361;BME280;10839;43.206;23.550;2023-05-08T00:46:47;97244.34;;;16.04;74.10
21361;BME280;10839;43.206;23.550;2023-05-08T00:49:13;97235.00;;;16.00;74.71
21361;BME280;10839;43.206;23.550;2023-05-08T00:51:46;97236.03;;;15.81;76.11
21361;BME280;10839;43.206;23.550;2023-05-08T00:54:13;97238.22;;;15.72;76.51
21361;BME280;10839;43.206;23.550;2023-05-08T00:56:39;97251.56;;;15.74;75.95
21361;BME280;10839;43.206;23.550;2023-05-08T00:59:10;97247.19;;;15.73;76.16
21361;BME280;10839;43.206;23.550;2023-05-08T01:01:39;97249.97;;;15.66;76.74
21361;BME280;10839;43.206;23.550;2023-05-08T01:04:06;97250.69;;;15.80;75.91
21361;BME280;10839;43.206;23.550;2023-05-08T01:06:32;97237.59;;;15.52;77.64
21361;BME280;10839;43.206;23.550;2023-05-08T01:09:02;97240.19;;;15.41;78.41
21361;BME280;10839;43.206;23.550;2023-05-08T01:11:35;97236.63;;;15.47;78.09
21361;BME280;10839;43.206;23.550;2023-05-08T01:14:16;97233.19;;;15.76;76.07
21361;BME280;10839;43.206;23.550;2023-05-08T01:16:47;97247.19;;;15.91;74.98
21361;BME280;10839;43.206;23.550;2023-05-08T01:33:21;97238.28;;;15.48;78.08
21361;BME280;10839;43.206;23.550;2023-05-08T01:35:55;97235.25;;;15.56;77.74
21361;BME280;10839;43.206;23.550;2023-05-08T01:41:08;97240.59;;;15.87;75.50
21361;BME280;10839;43.206;23.550;2023-05-08T01:46:41;97224.72;;;15.84;74.59
21361;BME280;10839;43.206;23.550;2023-05-08T01:51:56;97221.88;;;16.15;73.24
21361;BME280;10839;43.206;23.550;2023-05-08T01:54:27;97226.06;;;16.29;71.18
21361;BME280;10839;43.206;23.550;2023-05-08T01:56:55;97222.16;;;15.89;74.39
21361;BME280;10839;43.206;23.550;2023-05-08T01:59:23;97227.25;;;15.85;74.72
21361;BME280;10839;43.206;23.550;2023-05-08T02:01:53;97232.44;;;15.69;75.72
21361;BME280;10839;43.206;23.550;2023-05-08T02:04:23;97228.97;;;15.80;75.32
21361;BME280;10839;43.206;23.550;2023-05-08T02:06:51;97228.66;;;15.52;76.88
21361;BME280;10839;43.206;23.550;2023-05-08T02:09:19;97228.34;;;15.60;76.95
21361;BME280;10839;43.206;23.550;2023-05-08T02:11:46;97219.84;;;15.31;78.38
21361;BME280;10839;43.206;23.550;2023-05-08T02:14:18;97225.81;;;15.15;79.86
21361;BME280;10839;43.206;23.550;2023-05-08T02:16:48;97226.34;;;14.99;81.32
21361;BME280;10839;43.206;23.550;2023-05-08T02:19:15;97237.69;;;14.90;82.58
21361;BME280;10839;43.206;23.550;2023-05-08T02:21:44;97226.81;;;14.96;82.26
21361;BME280;10839;43.206;23.550;2023-05-08T02:24:12;97230.63;;;15.13;80.58
21361;BME280;10839;43.206;23.550;2023-05-08T02:26:41;97223.69;;;15.17;80.23
21361;BME280;10839;43.206;23.550;2023-05-08T02:29:09;97229.63;;;15.32;79.76
21361;BME280;10839;43.206;23.550;2023-05-08T02:31:37;97245.72;;;15.27;79.83
21361;BME280;10839;43.206;23.550;2023-05-08T02:34:05;97236.47;;;15.42;78.17
21361;BME280;10839;43.206;23.550;2023-05-08T02:36:33;97243.06;;;15.46;79.05
21361;BME280;10839;43.206;23.550;2023-05-08T02:39:02;97230.59;;;15.45;78.61
21361;BME280;10839;43.206;23.550;2023-05-08T02:41:31;97227.06;;;15.37;79.00
21361;BME280;10839;43.206;23.550;2023-05-08T02:43:58;97228.13;;;15.36;79.21
21361;BME280;10839;43.206;23.550;2023-05-08T02:46:52;97239.72;;;15.50;78.82
21361;BME280;10839;43.206;23.550;2023-05-08T02:49:32;97238.28;;;15.48;78.70
21361;BME280;10839;43.206;23.550;2023-05-08T02:54:48;97233.91;;;15.47;77.89
21361;BME280;10839;43.206;23.550;2023-05-08T02:57:42;97232.53;;;15.56;77.65
21361;BME280;10839;43.206;23.550;2023-05-08T03:00:11;97243.28;;;15.69;76.53
21361;BME280;10839;43.206;23.550;2023-05-08T03:02:41;97231.84;;;15.85;75.79
21361;BME280;10839;43.206;23.550;2023-05-08T03:05:24;97228.97;;;15.98;74.45
21361;BME280;10839;43.206;23.550;2023-05-08T03:07:56;97229.13;;;16.03;73.19
21361;BME280;10839;43.206;23.550;2023-05-08T03:10:30;97231.59;;;16.04;73.54
21361;BME280;10839;43.206;23.550;2023-05-08T03:12:59;97225.78;;;16.01;73.32
21361;BME280;10839;43.206;23.550;2023-05-08T03:15:33;97219.47;;;16.07;72.12
21361;BME280;10839;43.206;23.550;2023-05-08T03:18:12;97230.91;;;16.27;71.42
21361;BME280;10839;43.206;23.550;2023-05-08T03:20:42;97227.59;;;16.25;71.67
21361;BME280;10839;43.206;23.550;2023-05-08T03:23:11;97228.25;;;16.20;72.13
21361;BME280;10839;43.206;23.550;2023-05-08T03:25:43;97235.16;;;15.87;74.28
21361;BME280;10839;43.206;23.550;2023-05-08T03:28:11;97225.78;;;16.01;73.88
21361;BME280;10839;43.206;23.550;2023-05-08T03:30:40;97231.97;;;16.08;73.26
21361;BME280;10839;43.206;23.550;2023-05-08T03:33:10;97237.50;;;16.01;73.70
21361;BME280;10839;43.206;23.550;2023-05-08T03:35:38;97238.78;;;16.17;72.51
21361;BME280;10839;43.206;23.550;2023-05-08T03:38:06;97237.03;;;16.70;71.47
21361;BME280;10839;43.206;23.550;2023-05-08T03:40:34;97232.97;;;17.55;66.92
21361;BME280;10839;43.206;23.550;2023-05-08T03:43:07;97247.34;;;18.02;64.66
21361;BME280;10839;43.206;23.550;2023-05-08T03:45:36;97246.84;;;19.12;60.51
21361;BME280;10839;43.206;23.550;2023-05-08T03:48:04;97238.34;;;19.25;59.50
21361;BME280;10839;43.206;23.550;2023-05-08T03:50:35;97246.44;;;19.20;58.98
21361;BME280;10839;43.206;23.550;2023-05-08T03:53:03;97250.88;;;18.93;60.00
21361;BME280;10839;43.206;23.550;2023-05-08T03:55:30;97254.22;;;19.28;58.32
21361;BME280;10839;43.206;23.550;2023-05-08T03:58:04;97248.56;;;19.63;56.72
21361;BME280;10839;43.206;23.550;2023-05-08T04:01:05;97249.22;;;18.92;59.26
21361;BME280;10839;43.206;23.550;2023-05-08T04:03:41;97254.09;;;18.62;60.78
21361;BME280;10839;43.206;23.550;2023-05-08T04:06:16;97255.63;;;18.07;62.92
21361;BME280;10839;43.206;23.550;2023-05-08T04:08:54;97260.03;;;18.59;61.91
21361;BME280;10839;43.206;23.550;2023-05-08T04:11:29;97259.75;;;19.99;56.57
21361;BME280;10839;43.206;23.550;2023-05-08T04:14:03;97263.84;;;19.80;56.58
21361;BME280;10839;43.206;23.550;2023-05-08T04:16:37;97251.91;;;19.86;56.31
21361;BME280;10839;43.206;23.550;2023-05-08T04:19:13;97255.06;;;19.78;56.49
21361;BME280;10839;43.206;23.550;2023-05-08T04:21:41;97261.72;;;20.42;55.45
21361;BME280;10839;43.206;23.550;2023-05-08T04:24:11;97263.81;;;21.63;51.26
21361;BME280;10839;43.206;23.550;2023-05-08T04:26:40;97248.47;;;21.94;49.67
21361;BME280;10839;43.206;23.550;2023-05-08T04:29:07;97255.06;;;22.44;48.63
21361;BME280;10839;43.206;23.550;2023-05-08T04:31:34;97248.75;;;23.11;46.36
21361;BME280;10839;43.206;23.550;2023-05-08T04:34:02;97258.41;;;23.43;45.40
21361;BME280;10839;43.206;23.550;2023-05-08T04:36:30;97250.16;;;23.83;44.94
21361;BME280;10839;43.206;23.550;2023-05-08T04:38:58;97251.63;;;25.23;41.90
21361;BME280;10839;43.206;23.550;2023-05-08T04:41:26;97252.75;;;25.17;41.48
21361;BME280;10839;43.206;23.550;2023-05-08T04:43:52;97254.94;;;25.20;40.79
21361;BME280;10839;43.206;23.550;2023-05-08T04:46:19;97262.28;;;22.55;46.15
21361;BME280;10839;43.206;23.550;2023-05-08T04:48:45;97252.63;;;23.30;45.46
21361;BME280;10839;43.206;23.550;2023-05-08T04:51:10;97249.31;;;23.88;43.95
21361;BME280;10839;43.206;23.550;2023-05-08T04:53:37;97245.47;;;23.79;44.08
21361;BME280;10839;43.206;23.550;2023-05-08T04:56:03;97256.38;;;25.57;40.98
21361;BME280;10839;43.206;23.550;2023-05-08T04:58:29;97252.25;;;24.47;43.12
21361;BME280;10839;43.206;23.550;2023-05-08T05:00:56;97254.25;;;23.91;44.05
21361;BME280;10839;43.206;23.550;2023-05-08T05:03:21;97264.19;;;23.57;44.92
21361;BME280;10839;43.206;23.550;2023-05-08T05:05:48;97245.22;;;23.85;44.12
21361;BME280;10839;43.206;23.550;2023-05-08T05:08:13;97245.31;;;24.69;41.94
21361;BME280;10839;43.206;23.550;2023-05-08T05:10:39;97247.97;;;24.89;42.16
21361;BME280;10839;43.206;23.550;2023-05-08T05:13:05;97251.69;;;25.13;41.08
21361;BME280;10839;43.206;23.550;2023-05-08T05:15:31;97257.06;;;26.01;39.70
21361;BME280;10839;43.206;23.550;2023-05-08T05:17:57;97258.91;;;25.04;40.83
21361;BME280;10839;43.206;23.550;2023-05-08T05:20:23;97254.72;;;25.56;39.67
21361;BME280;10839;43.206;23.550;2023-05-08T05:22:49;97254.00;;;26.60;38.45
21361;BME280;10839;43.206;23.550;2023-05-08T05:25:15;97257.75;;;25.88;39.17
21361;BME280;10839;43.206;23.550;2023-05-08T05:27:41;97246.59;;;24.03;42.91
21361;BME280;10839;43.206;23.550;2023-05-08T05:30:09;97248.69;;;22.86;46.31
21361;BME280;10839;43.206;23.550;2023-05-08T05:32:37;97252.22;;;22.86;47.23
21361;BME280;10839;43.206;23.550;2023-05-08T05:35:03;97249.88;;;24.15;44.08
21361;BME280;10839;43.206;23.550;2023-05-08T05:37:29;97247.44;;;24.82;42.90
21361;BME280;10839;43.206;23.550;2023-05-08T05:39:55;97248.16;;;25.52;41.65
21361;BME280;10839;43.206;23.550;2023-05-08T05:42:21;97254.97;;;27.34;38.52
21361;BME280;10839;43.206;23.550;2023-05-08T05:44:47;97248.22;;;27.03;38.97
21361;BME280;10839;43.206;23.550;2023-05-08T05:47:13;97256.34;;;26.48;40.13
21361;BME280;10839;43.206;23.550;2023-05-08T05:49:40;97258.34;;;25.85;41.69
21361;BME280;10839;43.206;23.550;2023-05-08T05:52:12;97250.88;;;25.57;42.45
21361;BME280;10839;43.206;23.550;2023-05-08T05:54:38;97246.59;;;25.36;42.65
21361;BME280;10839;43.206;23.550;2023-05-08T05:57:04;97243.06;;;24.81;43.50
21361;BME280;10839;43.206;23.550;2023-05-08T05:59:30;97243.16;;;24.51;44.71
21361;BME280;10839;43.206;23.550;2023-05-08T06:01:56;97241.09;;;23.28;47.32
21361;BME280;10839;43.206;23.550;2023-05-08T06:04:22;97243.28;;;23.91;46.15
21361;BME280;10839;43.206;23.550;2023-05-08T06:06:47;97245.97;;;23.26;47.62
21361;BME280;10839;43.206;23.550;2023-05-08T06:09:13;97246.03;;;23.36;46.46
21361;BME280;10839;43.206;23.550;2023-05-08T06:11:40;97246.22;;;23.09;46.23
21361;BME280;10839;43.206;23.550;2023-05-08T06:14:07;97239.56;;;22.18;47.63
21361;BME280;10839;43.206;23.550;2023-05-08T06:16:32;97240.41;;;22.75;46.63
21361;BME280;10839;43.206;23.550;2023-05-08T06:19:00;97247.16;;;23.60;45.38
21361;BME280;10839;43.206;23.550;2023-05-08T06:21:26;97244.03;;;23.01;46.04
21361;BME280;10839;43.206;23.550;2023-05-08T06:23:53;97251.00;;;23.49;46.28
21361;BME280;10839;43.206;23.550;2023-05-08T06:26:19;97249.88;;;24.05;45.75
21361;BME280;10839;43.206;23.550;2023-05-08T06:28:46;97253.19;;;23.42;47.23
21361;BME280;10839;43.206;23.550;2023-05-08T06:31:12;97258.41;;;24.04;46.26
21361;BME280;10839;43.206;23.550;2023-05-08T06:33:37;97250.56;;;24.56;44.84
21361;BME280;10839;43.206;23.550;2023-05-08T06:36:04;97253.56;;;24.64;44.49
21361;BME280;10839;43.206;23.550;2023-05-08T06:38:31;97247.56;;;25.11;44.35
21361;BME280;10839;43.206;23.550;2023-05-08T06:40:56;97259.91;;;25.23;44.97
21361;BME280;10839;43.206;23.550;2023-05-08T06:43:22;97250.44;;;25.35;44.62
21361;BME280;10839;43.206;23.550;2023-05-08T06:45:48;97251.06;;;25.27;44.20
21361;BME280;10839;43.206;23.550;2023-05-08T06:48:14;97259.50;;;24.96;44.51
21361;BME280;10839;43.206;23.550;2023-05-08T06:50:40;97258.44;;;24.87;44.53
21361;BME280;10839;43.206;23.550;2023-05-08T06:53:07;97265.13;;;24.71;45.34
21361;BME280;10839;43.206;23.550;2023-05-08T06:55:33;97271.53;;;25.05;45.99
21361;BME280;10839;43.206;23.550;2023-05-08T06:57:58;97266.00;;;25.59;46.62
21361;BME280;10839;43.206;23.550;2023-05-08T07:00:24;97269.53;;;25.65;46.77
21361;BME280;10839;43.206;23.550;2023-05-08T07:02:51;97262.38;;;26.26;45.39
21361;BME280;10839;43.206;23.550;2023-05-08T07:05:17;97271.63;;;26.40;45.21
21361;BME280;10839;43.206;23.550;2023-05-08T07:07:45;97269.44;;;27.26;43.42
21361;BME280;10839;43.206;23.550;2023-05-08T07:10:10;97275.13;;;27.91;41.63
21361;BME280;10839;43.206;23.550;2023-05-08T07:12:36;97267.28;;;28.57;40.35
21361;BME280;10839;43.206;23.550;2023-05-08T07:15:02;97274.00;;;27.73;41.46
21361;BME280;10839;43.206;23.550;2023-05-08T07:17:28;97271.78;;;27.56;41.79
21361;BME280;10839;43.206;23.550;2023-05-08T07:19:55;97275.75;;;27.50;40.27
21361;BME280;10839;43.206;23.550;2023-05-08T07:22:21;97277.94;;;27.86;38.01
21361;BME280;10839;43.206;23.550;2023-05-08T07:24:46;97284.72;;;27.00;39.43
21361;BME280;10839;43.206;23.550;2023-05-08T07:27:12;97288.31;;;27.01;39.92
21361;BME280;10839;43.206;23.550;2023-05-08T07:29:39;97286.31;;;27.06;40.20
21361;BME280;10839;43.206;23.550;2023-05-08T07:32:06;97289.31;;;27.28;40.48
21361;BME280;10839;43.206;23.550;2023-05-08T07:34:32;97295.81;;;26.95;40.75
21361;BME280;10839;43.206;23.550;2023-05-08T07:36:59;97304.56;;;27.82;38.67
21361;BME280;10839;43.206;23.550;2023-05-08T07:39:24;97307.03;;;28.34;37.00
21361;BME280;10839;43.206;23.550;2023-05-08T07:41:50;97309.78;;;29.20;36.66
21361;BME280;10839;43.206;23.550;2023-05-08T07:44:16;97311.53;;;28.43;37.50
21361;BME280;10839;43.206;23.550;2023-05-08T07:46:42;97304.94;;;29.39;37.30
21361;BME280;10839;43.206;23.550;2023-05-08T07:49:07;97316.78;;;29.18;37.62
21361;BME280;10839;43.206;23.550;2023-05-08T07:51:33;97322.78;;;28.33;39.68
21361;BME280;10839;43.206;23.550;2023-05-08T07:53:59;97320.38;;;28.00;39.49
21361;BME280;10839;43.206;23.550;2023-05-08T07:56:25;97330.22;;;28.38;38.47
21361;BME280;10839;43.206;23.550;2023-05-08T07:58:52;97332.19;;;28.19;39.29
21361;BME280;10839;43.206;23.550;2023-05-08T08:01:17;97329.72;;;27.67;40.83
21361;BME280;10839;43.206;23.550;2023-05-08T08:03:44;97331.09;;;27.45;41.47
21361;BME280;10839;43.206;23.550;2023-05-08T08:06:11;97329.91;;;27.33;42.05
21361;BME280;10839;43.206;23.550;2023-05-08T08:08:37;97341.09;;;26.99;42.66
21361;BME280;10839;43.206;23.550;2023-05-08T08:11:04;97341.28;;;27.68;40.96
21361;BME280;10839;43.206;23.550;2023-05-08T08:13:30;97353.47;;;27.86;41.03
21361;BME280;10839;43.206;23.550;2023-05-08T08:15:58;97338.88;;;27.01;43.12
21361;BME280;10839;43.206;23.550;2023-05-08T08:18:24;97335.88;;;26.74;43.27
21361;BME280;10839;43.206;23.550;2023-05-08T08:20:50;97344.91;;;26.22;45.33
21361;BME280;10839;43.206;23.550;2023-05-08T08:23:16;97344.78;;;25.70;47.95
21361;BME280;10839;43.206;23.550;2023-05-08T08:25:42;97353.94;;;25.56;49.40
21361;BME280;10839;43.206;23.550;2023-05-08T08:28:08;97359.16;;;25.08;51.46
21361;BME280;10839;43.206;23.550;2023-05-08T08:30:33;97357.56;;;24.87;52.01
21361;BME280;10839;43.206;23.550;2023-05-08T08:32:59;97365.31;;;24.75;52.19
21361;BME280;10839;43.206;23.550;2023-05-08T08:35:29;97361.50;;;24.46;53.53
21361;BME280;10839;43.206;23.550;2023-05-08T08:37:57;97358.78;;;24.11;54.27
21361;BME280;10839;43.206;23.550;2023-05-08T08:40:22;97372.50;;;24.36;54.67
21361;BME280;10839;43.206;23.550;2023-05-08T08:42:48;97360.00;;;25.58;51.24
21361;BME280;10839;43.206;23.550;2023-05-08T08:45:14;97364.00;;;25.27;51.45
21361;BME280;10839;43.206;23.550;2023-05-08T08:47:42;97377.19;;;25.40;50.55
21361;BME280;10839;43.206;23.550;2023-05-08T08:50:12;97372.44;;;24.86;50.94
21361;BME280;10839;43.206;23.550;2023-05-08T08:55:10;97368.13;;;24.40;51.72
21361;BME280;10839;43.206;23.550;2023-05-08T09:00:33;97373.00;;;23.63;53.90
21361;BME280;10839;43.206;23.550;2023-05-08T09:03:03;97379.09;;;23.90;53.78
21361;BME280;10839;43.206;23.550;2023-05-08T09:05:30;97373.31;;;23.76;54.71
21361;BME280;10839;43.206;23.550;2023-05-08T09:07:57;97377.44;;;23.89;54.18
21361;BME280;10839;43.206;23.550;2023-05-08T09:10:24;97385.66;;;23.74;54.26
21361;BME280;10839;43.206;23.550;2023-05-08T09:12:50;97384.38;;;23.20;54.96
21361;BME280;10839;43.206;23.550;2023-05-08T09:15:16;97376.91;;;23.92;53.13
21361;BME280;10839;43.206;23.550;2023-05-08T09:17:42;97387.91;;;23.97;52.08
21361;BME280;10839;43.206;23.550;2023-05-08T09:20:08;97383.75;;;23.84;52.08
21361;BME280;10839;43.206;23.550;2023-05-08T09:22:37;97389.50;;;23.68;53.03
21361;BME280;10839;43.206;23.550;2023-05-08T09:25:04;97379.06;;;23.60;52.80
21361;BME280;10839;43.206;23.550;2023-05-08T09:27:31;97384.53;;;23.60;52.38
21361;BME280;10839;43.206;23.550;2023-05-08T09:32:31;97386.03;;;23.11;52.72
21361;BME280;10839;43.206;23.550;2023-05-08T09:34:58;97379.94;;;23.04;53.50
21361;BME280;10839;43.206;23.550;2023-05-08T09:37:25;97386.09;;;23.31;52.80
21361;BME280;10839;43.206;23.550;2023-05-08T09:39:51;97392.59;;;23.10;53.20
21361;BME280;10839;43.206;23.550;2023-05-08T09:42:18;97392.34;;;22.28;55.10
21361;BME280;10839;43.206;23.550;2023-05-08T09:44:52;97392.41;;;22.74;53.97
21361;BME280;10839;43.206;23.550;2023-05-08T09:47:20;97392.78;;;22.51;54.88
21361;BME280;10839;43.206;23.550;2023-05-08T09:50:01;97385.00;;;22.33;55.50
21361;BME280;10839;43.206;23.550;2023-05-08T09:52:29;97389.72;;;22.06;56.08
21361;BME280;10839;43.206;23.550;2023-05-08T09:55:03;97391.00;;;22.30;56.03
21361;BME280;10839;43.206;23.550;2023-05-08T09:57:31;97389.50;;;22.13;56.41
21361;BME280;10839;43.206;23.550;2023-05-08T10:02:33;97389.41;;;21.76;58.74
21361;BME280;10839;43.206;23.550;2023-05-08T10:05:00;97398.19;;;21.25;61.05
21361;BME280;10839;43.206;23.550;2023-05-08T10:07:34;97381.97;;;21.45;61.73
21361;BME280;10839;43.206;23.550;2023-05-08T10:10:03;97385.97;;;21.59;61.29
21361;BME280;10839;43.206;23.550;2023-05-08T10:12:30;97392.53;;;21.85;60.46
21361;BME280;10839;43.206;23.550;2023-05-08T10:14:57;97388.59;;;21.49;60.43
21361;BME280;10839;43.206;23.550;2023-05-08T10:17:49;97391.34;;;21.76;59.00
21361;BME280;10839;43.206;23.550;2023-05-08T10:20:19;97387.84;;;22.12;58.59
21361;BME280;10839;43.206;23.550;2023-05-08T10:22:47;97387.63;;;22.55;56.91
21361;BME280;10839;43.206;23.550;2023-05-08T10:25:18;97390.00;;;23.50;54.95
21361;BME280;10839;43.206;23.550;2023-05-08T10:27:58;97392.22;;;23.58;54.26
21361;BME280;10839;43.206;23.550;2023-05-08T10:30:28;97395.06;;;24.03;53.75
21361;BME280;10839;43.206;23.550;2023-05-08T10:32:57;97382.94;;;23.69;54.15
21361;BME280;10839;43.206;23.550;2023-05-08T10:35:25;97385.69;;;24.54;51.44
21361;BME280;10839;43.206;23.550;2023-05-08T10:37:52;97391.72;;;24.81;51.14
21361;BME280;10839;43.206;23.550;2023-05-08T10:40:20;97387.28;;;24.85;49.28
21361;BME280;10839;43.206;23.550;2023-05-08T10:42:48;97382.28;;;25.02;49.32
21361;BME280;10839;43.206;23.550;2023-05-08T10:45:14;97378.31;;;25.34;48.20
21361;BME280;10839;43.206;23.550;2023-05-08T10:51:04;97371.94;;;24.49;51.81
21361;BME280;10839;43.206;23.550;2023-05-08T10:53:33;97380.19;;;24.54;51.49
21361;BME280;10839;43.206;23.550;2023-05-08T10:56:01;97385.44;;;24.11;52.36
21361;BME280;10839;43.206;23.550;2023-05-08T10:58:54;97380.75;;;24.41;50.91
21361;BME280;10839;43.206;23.550;2023-05-08T11:01:20;97387.38;;;24.50;50.96
21361;BME280;10839;43.206;23.550;2023-05-08T11:03:47;97389.97;;;25.10;49.53
21361;BME280;10839;43.206;23.550;2023-05-08T11:06:15;97396.69;;;24.59;51.09
21361;BME280;10839;43.206;23.550;2023-05-08T11:08:49;97386.75;;;24.93;49.04
21361;BME280;10839;43.206;23.550;2023-05-08T11:11:24;97385.09;;;24.67;49.28
21361;BME280;10839;43.206;23.550;2023-05-08T11:24:52;97387.34;;;24.55;49.05
21361;BME280;10839;43.206;23.550;2023-05-08T11:32:55;97395.63;;;24.00;51.93
21361;BME280;10839;43.206;23.550;2023-05-08T11:35:45;97388.31;;;23.29;53.52
21361;BME280;10839;43.206;23.550;2023-05-08T11:38:16;97397.63;;;23.28;54.66
21361;BME280;10839;43.206;23.550;2023-05-08T11:40:47;97394.97;;;23.53;53.42
21361;BME280;10839;43.206;23.550;2023-05-08T11:43:48;97399.91;;;22.89;56.21
21361;BME280;10839;43.206;23.550;2023-05-08T11:46:18;97397.97;;;22.11;57.87
21361;BME280;10839;43.206;23.550;2023-05-08T11:48:45;97406.25;;;22.16;58.78
21361;BME280;10839;43.206;23.550;2023-05-08T11:51:11;97411.28;;;22.29;59.00
21361;BME280;10839;43.206;23.550;2023-05-08T11:53:38;97401.25;;;22.08;59.59
21361;BME280;10839;43.206;23.550;2023-05-08T11:56:04;97409.44;;;22.03;61.97
21361;BME280;10839;43.206;23.550;2023-05-08T11:58:30;97403.06;;;21.98;64.40
21361;BME280;10839;43.206;23.550;2023-05-08T12:00:56;97396.66;;;21.34;70.86
21361;BME280;10839;43.206;23.550;2023-05-08T12:03:23;97400.47;;;21.33;71.52
21361;BME280;10839;43.206;23.550;2023-05-08T12:05:55;97396.34;;;21.30;72.08
21361;BME280;10839;43.206;23.550;2023-05-08T12:08:22;97379.97;;;21.35;75.11
21361;BME280;10839;43.206;23.550;2023-05-08T12:10:52;97392.66;;;21.20;77.65
21361;BME280;10839;43.206;23.550;2023-05-08T12:13:26;97405.16;;;21.11;79.23
21361;BME280;10839;43.206;23.550;2023-05-08T12:15:57;97399.63;;;20.68;84.69
21361;BME280;10839;43.206;23.550;2023-05-08T12:18:25;97394.25;;;21.16;81.43
21361;BME280;10839;43.206;23.550;2023-05-08T12:20:57;97402.50;;;20.78;81.76
21361;BME280;10839;43.206;23.550;2023-05-08T12:23:29;97399.84;;;20.66;81.38
21361;BME280;10839;43.206;23.550;2023-05-08T12:25:59;97400.63;;;20.62;83.65
21361;BME280;10839;43.206;23.550;2023-05-08T12:28:25;97411.47;;;20.57;83.66
21361;BME280;10839;43.206;23.550;2023-05-08T12:30:52;97396.94;;;20.51;85.12
21361;BME280;10839;43.206;23.550;2023-05-08T12:33:19;97401.72;;;20.61;83.53
21361;BME280;10839;43.206;23.550;2023-05-08T12:35:45;97400.88;;;20.60;84.35
21361;BME280;10839;43.206;23.550;2023-05-08T12:38:11;97398.72;;;20.62;84.29
21361;BME280;10839;43.206;23.550;2023-05-08T12:40:45;97400.97;;;20.49;85.63
21361;BME280;10839;43.206;23.550;2023-05-08T12:43:12;97400.13;;;20.48;85.09
21361;BME280;10839;43.206;23.550;2023-05-08T12:45:40;97397.28;;;20.21;86.47
21361;BME280;10839;43.206;23.550;2023-05-08T12:48:09;97403.63;;;20.10;89.77
21361;BME280;10839;43.206;23.550;2023-05-08T12:50:38;97399.09;;;19.99;91.37
21361;BME280;10839;43.206;23.550;2023-05-08T12:53:09;97400.56;;;19.74;93.23
21361;BME280;10839;43.206;23.550;2023-05-08T12:55:37;97402.66;;;19.55;95.02
21361;BME280;10839;43.206;23.550;2023-05-08T12:58:09;97404.34;;;19.56;93.35
21361;BME280;10839;43.206;23.550;2023-05-08T13:03:09;97401.97;;;19.20;94.74
21361;BME280;10839;43.206;23.550;2023-05-08T13:05:36;97410.53;;;19.12;95.17
21361;BME280;10839;43.206;23.550;2023-05-08T13:08:06;97420.19;;;19.03;95.92
21361;BME280;10839;43.206;23.550;2023-05-08T13:10:55;97424.84;;;18.91;98.03
21361;BME280;10839;43.206;23.550;2023-05-08T13:13:42;97426.22;;;19.05;95.09
21361;BME280;10839;43.206;23.550;2023-05-08T13:16:08;97444.84;;;19.08;96.28
21361;BME280;10839;43.206;23.550;2023-05-08T13:18:33;97445.19;;;19.00;97.66
21361;BME280;10839;43.206;23.550;2023-05-08T13:21:02;97450.88;;;19.10;98.17
21361;BME280;10839;43.206;23.550;2023-05-08T13:23:28;97444.22;;;19.18;98.01
21361;BME280;10839;43.206;23.550;2023-05-08T13:25:54;97454.19;;;19.12;91.04
21361;BME280;10839;43.206;23.550;2023-05-08T13:28:20;97454.97;;;18.84;89.78
21361;BME280;10839;43.206;23.550;2023-05-08T13:30:46;97459.34;;;18.74;93.28
21361;BME280;10839;43.206;23.550;2023-05-08T13:33:12;97455.13;;;18.55;93.42
21361;BME280;10839;43.206;23.550;2023-05-08T13:35:38;97458.50;;;18.39;95.66
21361;BME280;10839;43.206;23.550;2023-05-08T13:38:04;97453.06;;;18.39;97.01
21361;BME280;10839;43.206;23.550;2023-05-08T13:40:30;97462.78;;;18.35;100.00
21361;BME280;10839;43.206;23.550;2023-05-08T13:42:56;97460.13;;;18.05;100.00
21361;BME280;10839;43.206;23.550;2023-05-08T13:45:22;97457.38;;;17.94;100.00
21361;BME280;10839;43.206;23.550;2023-05-08T13:47:49;97456.53;;;17.81;100.00
21361;BME280;10839;43.206;23.550;2023-05-08T13:50:17;97455.53;;;18.29;99.07
21361;BME280;10839;43.206;23.550;2023-05-08T13:52:46;97453.28;;;18.14;98.75
21361;BME280;10839;43.206;23.550;2023-05-08T13:55:13;97460.84;;;18.12;100.00